Time;durP1;ratioP1;P1;durP2;ratioP2;P2;SDS_P1;SDS_P2;PMS_P1;PMS_P2;Temp;Humidity;BMP_temperature;BMP_pressure;BME280_temperature;BME280_humidity;BME280_pressure;Samples;Min_cycle;Max_cycle;Signal;HPM_P1;HPM_P2
2023/01/26 00:02:21;;;;;;;5.50;3.88;;;27.60;61.90;;;;;;4188982;28;20461;-44
2023/01/26 00:04:43;;;;;;;6.55;3.50;;;27.50;61.20;;;;;;4184191;28;20036;-43
2023/01/26 00:07:05;;;;;;;4.22;3.67;;;27.40;60.20;;;;;;4182700;28;20423;-42
2023/01/26 00:09:28;;;;;;;5.03;3.67;;;27.20;59.70;;;;;;4186199;28;20041;-45
2023/01/26 00:11:50;;;;;;;4.20;3.40;;;27.10;58.90;;;;;;4181192;28;20425;-41
2023/01/26 00:14:13;;;;;;;3.80;3.17;;;27.00;59.80;;;;;;4187796;28;20028;-45
2023/01/26 00:16:35;;;;;;;3.75;3.20;;;26.80;59.80;;;;;;4181064;28;20055;-43
2023/01/26 00:18:57;;;;;;;4.47;3.67;;;26.70;60.00;;;;;;4183739;28;20532;-45
2023/01/26 00:21:22;;;;;;;4.35;3.50;;;26.60;58.30;;;;;;4187323;28;20037;-43
2023/01/26 00:23:44;;;;;;;4.10;3.40;;;26.50;59.10;;;;;;4168495;28;20037;-44
2023/01/26 00:26:13;;;;;;;3.95;3.55;;;26.40;58.70;;;;;;4184601;28;20058;-41
2023/01/26 00:28:36;;;;;;;4.75;3.97;;;26.20;59.70;;;;;;4171926;28;20856;-45
2023/01/26 00:31:08;;;;;;;4.73;3.90;;;26.20;58.50;;;;;;4185430;28;20037;-45
2023/01/26 00:33:30;;;;;;;3.83;3.40;;;26.10;59.80;;;;;;4180118;28;20068;-49
2023/01/26 00:35:56;;;;;;;3.90;3.50;;;26.10;59.60;;;;;;4181902;28;20044;-48
2023/01/26 00:38:18;;;;;;;4.18;3.67;;;26.10;59.20;;;;;;4175272;28;20357;-44
2023/01/26 00:40:41;;;;;;;4.43;3.60;;;26.10;60.20;;;;;;4182353;28;20439;-45
2023/01/26 00:43:03;;;;;;;4.07;3.58;;;26.00;59.80;;;;;;4184729;28;20032;-49
2023/01/26 00:45:26;;;;;;;4.20;3.45;;;25.90;59.40;;;;;;4184271;28;20056;-45
2023/01/26 00:47:49;;;;;;;5.22;3.53;;;25.80;59.70;;;;;;4183233;28;20139;-44
2023/01/26 00:50:11;;;;;;;4.88;3.78;;;25.70;59.30;;;;;;4184333;28;20356;-45
2023/01/26 00:52:34;;;;;;;4.05;3.47;;;25.70;62.00;;;;;;4168727;28;20127;-46
2023/01/26 00:54:56;;;;;;;4.57;3.83;;;25.70;64.20;;;;;;4178711;28;20436;-43
2023/01/26 00:57:19;;;;;;;4.03;3.63;;;25.70;65.70;;;;;;4180667;28;20115;-45
2023/01/26 00:59:41;;;;;;;4.00;3.60;;;25.70;63.70;;;;;;4183399;28;20528;-49
2023/01/26 01:02:04;;;;;;;4.07;3.67;;;25.70;62.30;;;;;;4172411;28;20111;-43
2023/01/26 01:04:26;;;;;;;4.10;3.55;;;25.70;61.70;;;;;;4184164;28;20127;-44
2023/01/26 01:06:49;;;;;;;3.88;3.47;;;25.70;61.60;;;;;;4183143;28;20111;-46
2023/01/26 01:09:12;;;;;;;4.40;4.00;;;25.60;61.60;;;;;;4168403;28;20102;-45
2023/01/26 01:11:35;;;;;;;3.80;3.40;;;25.60;61.20;;;;;;4184280;28;20611;-46
2023/01/26 01:13:57;;;;;;;4.25;3.85;;;25.60;61.20;;;;;;4185632;28;20612;-46
2023/01/26 01:16:20;;;;;;;3.85;3.45;;;25.50;60.60;;;;;;4183388;28;20053;-46
2023/01/26 01:18:43;;;;;;;3.92;3.42;;;25.50;60.40;;;;;;4185250;28;20132;-48
2023/01/26 01:21:12;;;;;;;3.75;3.35;;;25.40;60.30;;;;;;4185413;28;20164;-46
2023/01/26 01:23:35;;;;;;;3.85;3.45;;;25.40;60.40;;;;;;4185425;28;20068;-47
2023/01/26 01:25:58;;;;;;;3.93;3.53;;;25.30;60.50;;;;;;4181546;28;20048;-48
2023/01/26 01:28:21;;;;;;;3.78;3.40;;;25.30;60.20;;;;;;4186350;28;20550;-49
2023/01/26 01:30:43;;;;;;;4.28;3.88;;;25.30;60.70;;;;;;4189445;28;20036;-47
2023/01/26 01:33:05;;;;;;;4.40;4.00;;;25.30;60.50;;;;;;4188107;28;20036;-47
2023/01/26 01:35:28;;;;;;;4.63;4.22;;;25.20;60.50;;;;;;4186070;28;20078;-44
2023/01/26 01:37:50;;;;;;;4.72;4.32;;;25.10;60.00;;;;;;4186610;28;20048;-45
2023/01/26 01:40:14;;;;;;;5.10;4.60;;;25.10;60.30;;;;;;4182560;28;20032;-40
2023/01/26 02:31:18;;;;;;;6.30;5.80;;;24.50;60.60;;;;;;4433266;22;20041;-49
2023/01/26 03:13:53;;;;;;;6.13;5.53;;;24.30;61.50;;;;;;4335825;23;20054;-54
2023/01/26 07:19:10;;;;;;;6.25;4.85;;;28.50;62.10;;;;;;3932883;26;20074;-54
2023/01/26 07:21:34;;;;;;;6.43;5.13;;;28.50;62.10;;;;;;4119098;28;20121;-55
2023/01/26 07:23:56;;;;;;;;;;;28.50;62.10;;;;;;4121057;28;20539;-55
2023/01/26 07:26:19;;;;;;;6.88;5.07;;;28.60;62.00;;;;;;4117180;28;20131;-51
2023/01/26 07:28:42;;;;;;;6.85;5.20;;;28.60;62.00;;;;;;4119178;28;20042;-53
2023/01/26 07:31:06;;;;;;;6.80;5.70;;;28.70;62.00;;;;;;4108625;28;20042;-51
2023/01/26 07:33:33;;;;;;;6.53;4.90;;;28.70;62.00;;;;;;4110472;28;20118;-53
2023/01/26 07:35:57;;;;;;;7.15;5.30;;;28.70;61.90;;;;;;4113319;28;20471;-55
2023/01/26 07:38:19;;;;;;;6.22;5.25;;;28.70;61.90;;;;;;4116187;28;20054;-50
2023/01/26 07:40:43;;;;;;;7.28;5.38;;;28.70;61.90;;;;;;4120337;28;20045;-52
2023/01/26 07:43:05;;;;;;;6.90;5.90;;;28.80;62.00;;;;;;4119157;28;20038;-51
2023/01/26 07:45:28;;;;;;;6.97;5.80;;;28.80;62.00;;;;;;4116935;28;20058;-50
2023/01/26 07:47:52;;;;;;;7.03;5.90;;;28.80;61.90;;;;;;4116237;28;20066;-49
2023/01/26 07:50:13;;;;;;;;;;;28.80;61.90;;;;;;4115037;28;20812;-56
2023/01/26 07:52:37;;;;;;;9.55;7.45;;;28.90;62.00;;;;;;4117271;28;19919;-55
2023/01/26 07:54:59;;;;;;;9.10;8.07;;;28.90;62.00;;;;;;4118316;28;20539;-48
2023/01/26 07:57:21;;;;;;;10.68;7.97;;;28.90;62.20;;;;;;4114900;28;20081;-53
2023/01/26 07:59:44;;;;;;;10.68;8.65;;;28.90;62.10;;;;;;4112814;28;20097;-51
2023/01/26 08:02:08;;;;;;;9.95;8.40;;;28.90;62.20;;;;;;4110456;28;20041;-51
2023/01/26 08:04:31;;;;;;;9.75;8.35;;;29.00;62.20;;;;;;4116919;28;20533;-54
2023/01/26 08:06:53;;;;;;;9.35;7.88;;;29.00;62.20;;;;;;4111306;28;20234;-53
2023/01/26 08:09:15;;;;;;;9.55;8.20;;;29.00;62.20;;;;;;4110554;28;20428;-54
2023/01/26 08:11:38;;;;;;;9.68;8.68;;;29.00;62.30;;;;;;4109637;28;20436;-53
2023/01/26 08:14:03;;;;;;;11.60;8.73;;;29.10;62.40;;;;;;4111458;28;20837;-57
2023/01/26 08:16:25;;;;;;;10.25;8.77;;;29.00;62.40;;;;;;4108120;28;20050;-53
2023/01/26 08:18:48;;;;;;;10.20;9.07;;;29.10;62.60;;;;;;4114632;28;20393;-52
2023/01/26 08:21:12;;;;;;;9.73;8.73;;;29.00;62.40;;;;;;4119000;28;20177;-51
2023/01/26 08:23:35;;;;;;;10.13;8.75;;;29.10;62.60;;;;;;4111192;28;20039;-54
2023/01/26 08:26:02;;;;;;;10.27;8.73;;;29.10;62.60;;;;;;4111367;28;20404;-50
2023/01/26 08:28:25;;;;;;;9.60;8.55;;;29.10;62.60;;;;;;4112816;28;20046;-52
2023/01/26 08:30:47;;;;;;;10.50;8.73;;;29.10;62.60;;;;;;4117221;28;20072;-52
2023/01/26 08:33:09;;;;;;;12.27;9.68;;;29.10;62.70;;;;;;4115016;28;20042;-56
2023/01/26 08:35:33;;;;;;;11.23;9.77;;;29.10;62.70;;;;;;4120602;28;20039;-50
2023/01/26 08:37:55;;;;;;;11.55;9.68;;;29.10;63.40;;;;;;4112806;28;20157;-52
2023/01/26 08:40:17;;;;;;;9.73;8.43;;;29.10;63.00;;;;;;4107891;28;20528;-55
2023/01/26 08:42:40;;;;;;;9.88;8.82;;;29.10;63.00;;;;;;4111520;28;20469;-54
2023/01/26 08:45:02;;;;;;;8.68;7.78;;;29.20;63.10;;;;;;4112687;28;20185;-56
2023/01/26 08:47:25;;;;;;;9.48;8.45;;;29.20;63.20;;;;;;4116401;28;20046;-53
2023/01/26 08:49:47;;;;;;;8.52;7.22;;;29.20;63.20;;;;;;4109503;28;20479;-55
2023/01/26 08:52:09;;;;;;;7.75;6.43;;;29.20;63.20;;;;;;4116974;28;20112;-54
2023/01/26 08:54:32;;;;;;;8.05;7.00;;;29.20;63.30;;;;;;4111159;28;20034;-54
2023/01/26 08:56:54;;;;;;;7.72;6.18;;;29.20;63.30;;;;;;4113480;28;20606;-56
2023/01/26 08:59:16;;;;;;;8.38;6.57;;;29.20;63.40;;;;;;4110357;28;20043;-53
2023/01/26 09:01:39;;;;;;;7.82;6.00;;;29.20;63.30;;;;;;4111053;28;20046;-53
2023/01/26 09:04:02;;;;;;;7.07;5.75;;;29.20;63.40;;;;;;4111529;28;20086;-54
2023/01/26 09:06:26;;;;;;;7.00;5.40;;;29.20;63.50;;;;;;4113416;28;20847;-56
2023/01/26 09:08:48;;;;;;;6.72;6.03;;;29.20;62.80;;;;;;4113624;28;20046;-55
2023/01/26 09:11:11;;;;;;;6.30;5.43;;;29.00;60.30;;;;;;4103686;28;20034;-55
2023/01/26 09:13:35;;;;;;;6.50;5.38;;;28.80;59.10;;;;;;4108975;28;20041;-56
2023/01/26 09:15:58;;;;;;;6.80;5.15;;;28.70;58.50;;;;;;4125962;28;20104;-52
2023/01/26 09:18:20;;;;;;;4.85;4.30;;;28.50;57.80;;;;;;4120651;28;20057;-51
2023/01/26 09:20:43;;;;;;;5.80;4.43;;;28.30;57.20;;;;;;4115195;28;20041;-53
2023/01/26 09:23:06;;;;;;;5.33;4.20;;;28.20;57.20;;;;;;4121157;28;20069;-56
2023/01/26 09:25:29;;;;;;;4.45;3.83;;;28.00;56.70;;;;;;4118100;28;20142;-55
2023/01/26 09:27:51;;;;;;;4.47;4.03;;;27.90;56.50;;;;;;4116709;28;20042;-54
2023/01/26 09:30:14;;;;;;;5.68;3.50;;;27.80;56.30;;;;;;4116692;28;20046;-55
2023/01/26 09:32:36;;;;;;;4.20;3.60;;;27.60;56.30;;;;;;4117502;28;20100;-56
2023/01/26 09:34:59;;;;;;;4.20;3.45;;;27.50;55.60;;;;;;4120619;28;20295;-53
2023/01/26 09:37:21;;;;;;;4.75;3.50;;;27.40;55.80;;;;;;4120175;28;20057;-48
2023/01/26 09:39:44;;;;;;;3.72;3.00;;;27.30;55.30;;;;;;4123090;28;20122;-50
2023/01/26 09:42:21;;;;;;;4.00;3.33;;;27.10;54.80;;;;;;4124300;28;20096;-51
2023/01/26 09:45:16;;;;;;;5.82;3.15;;;26.90;55.30;;;;;;4118538;28;20046;-47
2023/01/26 09:47:54;;;;;;;4.85;3.13;;;26.70;54.40;;;;;;4119997;28;20116;-47
2023/01/26 09:50:32;;;;;;;4.93;3.38;;;26.50;56.10;;;;;;4119510;28;20048;-50
2023/01/26 09:52:57;;;;;;;4.45;3.40;;;26.40;55.00;;;;;;4117408;28;20033;-53
2023/01/26 09:55:21;;;;;;;4.50;3.40;;;26.20;55.20;;;;;;4115557;28;20048;-50
2023/01/26 09:57:59;;;;;;;4.90;3.20;;;26.10;55.60;;;;;;4113643;28;20444;-53
2023/01/26 10:00:36;;;;;;;4.25;3.40;;;26.00;55.80;;;;;;4120341;28;20423;-50
2023/01/26 10:03:25;;;;;;;3.90;3.20;;;25.80;55.40;;;;;;4126381;28;20054;-52
2023/01/26 10:06:17;;;;;;;3.95;3.03;;;25.70;56.20;;;;;;4121342;28;20042;-50
2023/01/26 10:08:43;;;;;;;3.50;2.80;;;25.50;55.90;;;;;;4117072;28;20108;-48
2023/01/26 10:11:31;;;;;;;3.85;3.03;;;25.40;55.40;;;;;;4121825;28;20574;-48
2023/01/26 10:14:06;;;;;;;4.35;3.70;;;25.30;55.20;;;;;;4115848;28;20034;-50
2023/01/26 10:16:32;;;;;;;4.50;2.92;;;25.20;55.90;;;;;;4121421;28;20248;-48
2023/01/26 10:19:04;;;;;;;4.78;3.45;;;25.00;56.40;;;;;;4117231;28;20487;-49
2023/01/26 10:21:32;;;;;;;4.72;3.55;;;24.90;56.10;;;;;;4112866;28;20043;-46
2023/01/26 10:23:58;;;;;;;5.07;3.30;;;24.80;55.90;;;;;;4123050;28;20139;-58
2023/01/26 10:26:22;;;;;;;4.55;3.55;;;24.70;56.70;;;;;;4121567;28;20046;-58
2023/01/26 10:28:47;;;;;;;5.70;3.45;;;24.60;57.80;;;;;;4115837;28;20041;-58
2023/01/26 10:31:19;;;;;;;6.57;3.40;;;24.50;57.40;;;;;;4117595;28;20058;-59
2023/01/26 10:33:53;;;;;;;4.15;3.30;;;24.40;58.60;;;;;;4118763;28;20283;-51
2023/01/26 10:36:16;;;;;;;5.15;3.50;;;24.40;58.80;;;;;;4115549;28;20046;-55
2023/01/26 10:38:40;;;;;;;5.28;2.83;;;24.50;58.80;;;;;;4118330;28;20587;-55
2023/01/26 10:41:21;;;;;;;4.00;3.00;;;24.50;58.80;;;;;;4116510;28;20066;-51
2023/01/26 10:44:09;;;;;;;5.80;3.05;;;24.60;59.50;;;;;;4117849;28;20435;-55
2023/01/26 10:46:34;;;;;;;3.97;3.00;;;24.60;60.00;;;;;;4113689;28;20039;-56
2023/01/26 10:49:03;;;;;;;9.18;3.55;;;24.70;60.50;;;;;;4117021;28;20396;-56
2023/01/26 10:51:35;;;;;;;9.48;2.85;;;24.80;61.00;;;;;;4113661;28;20512;-51
2023/01/26 10:54:24;;;;;;;4.07;2.53;;;24.90;61.30;;;;;;4135529;23;21789;-42
2023/01/26 10:56:50;;;;;;;5.05;2.78;;;25.00;61.70;;;;;;4109083;28;20042;-41
2023/01/26 10:59:40;;;;;;;6.38;2.92;;;25.10;62.00;;;;;;4110858;28;20050;-42
2023/01/26 11:02:21;;;;;;;10.63;3.83;;;25.20;63.10;;;;;;4109068;28;20376;-48
2023/01/26 11:05:07;;;;;;;7.30;3.30;;;25.30;65.10;;;;;;4109095;28;20046;-41
2023/01/26 11:07:41;;;;;;;9.85;4.20;;;25.40;65.80;;;;;;4111974;28;20777;-44
2023/01/26 11:10:22;;;;;;;10.55;4.90;;;25.50;67.70;;;;;;4107243;28;20043;-43
2023/01/26 11:12:44;;;;;;;9.63;5.40;;;25.60;68.00;;;;;;4102533;28;20045;-41
2023/01/26 11:15:19;;;;;;;8.75;4.70;;;25.60;68.70;;;;;;4099083;28;20449;-43
2023/01/26 11:17:59;;;;;;;9.18;4.90;;;25.70;69.10;;;;;;4099338;28;20538;-43
2023/01/26 11:20:39;;;;;;;10.13;5.03;;;25.80;69.20;;;;;;4097262;28;20043;-44
2023/01/26 11:23:08;;;;;;;10.57;5.00;;;25.90;69.70;;;;;;4104812;28;20076;-42
2023/01/26 11:25:50;;;;;;;16.05;5.30;;;26.00;70.20;;;;;;4361279;23;20322;-86
2023/01/26 11:28:46;;;;;;;11.50;5.32;;;26.00;69.90;;;;;;4103321;28;20074;-87
2023/01/26 11:31:42;;;;;;;13.00;5.03;;;26.10;70.20;;;;;;4104708;28;20046;-78
2023/01/26 11:34:32;;;;;;;11.45;4.40;;;26.10;70.50;;;;;;4108205;28;20089;-84
2023/01/26 11:37:09;;;;;;;13.65;5.68;;;26.10;71.00;;;;;;4092901;28;20050;-84
2023/01/26 11:39:45;;;;;;;11.43;5.05;;;26.20;71.20;;;;;;4101638;28;20034;-82
2023/01/26 11:42:34;;;;;;;14.40;4.70;;;26.30;71.20;;;;;;4108659;28;20369;-82
2023/01/26 11:45:09;;;;;;;13.50;5.10;;;26.30;71.30;;;;;;4098569;28;20038;-79
2023/01/26 11:47:50;;;;;;;11.60;4.60;;;26.30;71.40;;;;;;4104088;28;20058;-81
2023/01/26 11:52:19;;;;;;;9.38;4.35;;;26.40;71.40;;;;;;4144781;28;20119;-36
2023/01/26 11:55:03;;;;;;;10.98;4.57;;;26.40;71.40;;;;;;4140232;28;20424;-36
2023/01/26 11:57:51;;;;;;;11.40;4.57;;;26.40;71.50;;;;;;4140506;28;20210;-38
2023/01/26 12:00:40;;;;;;;11.45;4.28;;;26.50;71.30;;;;;;4140100;28;20096;-38
2023/01/26 12:03:28;;;;;;;13.57;4.75;;;26.50;71.20;;;;;;4142212;28;20135;-39
2023/01/26 12:06:06;;;;;;;12.48;4.47;;;26.60;71.20;;;;;;4142079;28;20034;-36
2023/01/26 12:08:50;;;;;;;11.45;4.20;;;26.60;71.10;;;;;;4142069;28;20461;-37
2023/01/26 12:11:30;;;;;;;11.52;4.45;;;26.60;71.10;;;;;;4144705;28;20631;-40
2023/01/26 12:14:30;;;;;;;12.95;4.65;;;26.60;71.10;;;;;;4140712;28;20037;-39
2023/01/26 12:16:55;;;;;;;10.68;4.00;;;26.70;71.10;;;;;;4130119;28;20047;-37
2023/01/26 12:19:45;;;;;;;10.68;4.75;;;26.60;71.20;;;;;;4139884;28;20049;-37
2023/01/26 12:22:46;;;;;;;11.32;4.20;;;26.70;71.30;;;;;;4143751;28;20410;-37
2023/01/26 12:25:29;;;;;;;11.52;4.07;;;26.70;71.00;;;;;;4145933;28;20112;-37
2023/01/26 12:28:10;;;;;;;9.43;4.50;;;26.70;71.10;;;;;;4145938;28;20038;-38
2023/01/26 12:31:03;;;;;;;11.90;4.47;;;26.80;71.10;;;;;;4148111;28;20120;-36
2023/01/26 12:33:26;;;;;;;13.02;4.03;;;26.80;70.80;;;;;;4142900;28;20075;-37
2023/01/26 12:36:06;;;;;;;11.25;4.20;;;26.80;70.70;;;;;;4133534;28;20571;-38
2023/01/26 12:38:53;;;;;;;9.98;3.75;;;26.80;70.80;;;;;;4144070;28;20064;-37
2023/01/26 12:41:25;;;;;;;9.93;3.80;;;26.80;70.50;;;;;;4144477;28;20046;-39
2023/01/26 12:44:11;;;;;;;14.02;4.95;;;26.80;70.60;;;;;;4145843;28;20045;-38
2023/01/26 12:46:41;;;;;;;11.52;4.30;;;26.80;70.40;;;;;;4141985;28;20045;-38
2023/01/26 12:49:39;;;;;;;14.48;4.47;;;26.80;71.00;;;;;;4144412;28;20428;-37
2023/01/26 12:52:14;;;;;;;10.95;3.60;;;26.80;71.00;;;;;;4140751;28;20053;-39
2023/01/26 12:54:49;;;;;;;10.23;3.63;;;26.80;70.70;;;;;;4145279;28;20477;-38
2023/01/26 12:57:43;;;;;;;8.32;3.50;;;26.80;70.50;;;;;;4148152;28;20053;-39
2023/01/26 13:00:32;;;;;;;8.55;3.88;;;26.90;70.50;;;;;;4142418;28;20046;-40
2023/01/26 13:03:06;;;;;;;8.73;3.83;;;26.80;70.30;;;;;;4132264;28;20037;-42
2023/01/26 13:05:55;;;;;;;7.53;3.50;;;26.90;70.30;;;;;;4145025;28;20034;-40
2023/01/26 13:08:30;;;;;;;15.40;4.28;;;26.90;70.20;;;;;;4149144;28;20512;-43
2023/01/26 13:10:56;;;;;;;10.20;3.15;;;26.90;70.00;;;;;;4150595;28;20311;-41
2023/01/26 13:13:24;;;;;;;10.05;2.88;;;26.90;70.00;;;;;;4149689;28;20049;-39
2023/01/26 13:16:07;;;;;;;11.77;3.55;;;26.90;69.90;;;;;;4149963;28;20068;-39
2023/01/26 13:19:08;;;;;;;8.68;2.97;;;26.90;69.80;;;;;;4147519;28;20061;-39
2023/01/26 13:21:33;;;;;;;4.93;2.70;;;26.90;69.80;;;;;;4149852;28;20515;-37
2023/01/26 13:24:24;;;;;;;6.57;2.80;;;26.90;69.70;;;;;;4149763;28;20413;-40
2023/01/26 13:26:48;;;;;;;8.00;2.65;;;26.90;69.70;;;;;;4123052;28;20037;-40
2023/01/26 13:29:47;;;;;;;8.57;3.00;;;26.90;69.70;;;;;;4146891;28;20073;-39
2023/01/26 13:32:20;;;;;;;8.77;2.90;;;26.90;69.60;;;;;;4149620;28;20043;-39
2023/01/26 13:34:52;;;;;;;7.18;2.70;;;26.90;69.60;;;;;;4147762;28;20037;-39
2023/01/26 13:37:30;;;;;;;7.70;3.20;;;26.90;69.50;;;;;;4151213;28;20158;-37
2023/01/26 13:39:58;;;;;;;5.60;2.30;;;26.90;69.50;;;;;;4150602;28;20565;-37
2023/01/26 13:42:29;;;;;;;7.10;2.97;;;26.90;69.40;;;;;;4148926;28;20045;-38
2023/01/26 13:45:41;;;;;;;4.70;2.92;;;27.00;69.50;;;;;;4150458;28;20061;-39
2023/01/26 13:48:39;;;;;;;8.32;2.83;;;27.00;69.40;;;;;;4112496;28;20045;-39
2023/01/26 13:51:03;;;;;;;6.95;2.83;;;27.10;69.40;;;;;;4152660;28;20047;-40
2023/01/26 13:53:43;;;;;;;6.60;2.33;;;27.00;69.20;;;;;;4153000;28;20048;-38
2023/01/26 13:56:19;;;;;;;6.05;2.60;;;27.00;69.20;;;;;;4148433;28;20489;-38
2023/01/26 13:58:42;;;;;;;6.60;2.75;;;27.10;69.20;;;;;;4150961;28;20041;-39
2023/01/26 14:01:06;;;;;;;9.82;2.50;;;27.00;69.10;;;;;;4150897;28;20037;-37
2023/01/26 14:03:30;;;;;;;7.07;2.63;;;27.10;69.20;;;;;;4148344;28;20042;-41
2023/01/26 14:05:54;;;;;;;;;;;27.10;69.20;;;;;;4151482;28;20041;-37
2023/01/26 14:08:20;;;;;;;9.25;2.83;;;27.10;69.20;;;;;;4150905;28;20008;-38
2023/01/26 14:10:43;;;;;;;8.63;2.75;;;27.10;69.10;;;;;;4154088;28;20035;-37
2023/01/26 14:13:06;;;;;;;8.88;2.88;;;27.20;69.20;;;;;;4152105;28;20051;-38
2023/01/26 14:15:33;;;;;;;9.80;2.78;;;27.10;69.00;;;;;;4150890;28;20128;-39
2023/01/26 14:17:57;;;;;;;6.90;2.53;;;27.10;69.00;;;;;;4151720;28;20100;-36
2023/01/26 14:20:35;;;;;;;25.75;5.05;;;27.20;69.00;;;;;;4155436;28;20036;-38
2023/01/26 14:23:14;;;;;;;14.73;4.30;;;27.20;69.00;;;;;;4157592;28;20021;-37
2023/01/26 14:25:38;;;;;;;20.63;3.70;;;27.20;69.00;;;;;;4149913;28;20413;-35
2023/01/26 14:28:00;;;;;;;13.18;3.65;;;27.30;69.00;;;;;;4159012;28;20048;-37
2023/01/26 14:30:33;;;;;;;8.43;3.05;;;27.20;68.80;;;;;;4152948;28;20511;-40
2023/01/26 14:33:16;;;;;;;12.23;3.30;;;27.30;68.80;;;;;;4151033;28;20037;-37
2023/01/26 14:35:39;;;;;;;8.18;3.17;;;27.30;68.80;;;;;;4153186;28;20037;-40
2023/01/26 14:38:11;;;;;;;8.13;3.33;;;27.30;68.80;;;;;;4135419;28;20077;-37
2023/01/26 14:40:33;;;;;;;6.72;3.05;;;27.20;68.80;;;;;;4152342;28;20045;-38
2023/01/26 14:42:56;;;;;;;10.07;3.05;;;27.20;68.90;;;;;;4149337;28;20033;-43
2023/01/26 14:45:31;;;;;;;6.03;2.83;;;27.30;69.00;;;;;;4147157;28;20052;-40
2023/01/26 14:47:54;;;;;;;6.47;2.78;;;27.30;69.00;;;;;;4153053;28;20038;-37
2023/01/26 14:50:29;;;;;;;12.52;3.13;;;27.30;69.00;;;;;;4150199;28;20532;-46
2023/01/26 14:52:52;;;;;;;9.18;3.03;;;27.30;69.00;;;;;;4145108;28;20049;-37
2023/01/26 14:55:29;;;;;;;10.45;3.83;;;27.30;68.80;;;;;;4148211;28;20495;-37
2023/01/26 14:57:52;;;;;;;10.05;2.95;;;27.30;68.90;;;;;;4150317;28;20033;-37
2023/01/26 15:00:37;;;;;;;12.27;3.30;;;27.30;69.00;;;;;;4145927;28;20068;-36
2023/01/26 15:03:06;;;;;;;9.70;3.03;;;27.30;68.90;;;;;;4154098;28;20091;-35
2023/01/26 15:05:37;;;;;;;8.35;2.88;;;27.30;68.80;;;;;;4149393;28;20120;-35
2023/01/26 15:08:03;;;;;;;5.88;2.83;;;27.30;68.80;;;;;;4151050;28;20037;-35
2023/01/26 15:10:31;;;;;;;5.07;2.58;;;27.30;68.80;;;;;;4152896;28;20083;-36
2023/01/26 15:13:24;;;;;;;10.32;3.00;;;27.30;68.90;;;;;;4153861;28;20041;-37
2023/01/26 15:16:02;;;;;;;8.75;2.83;;;27.30;68.80;;;;;;4152250;28;20048;-37
2023/01/26 15:18:31;;;;;;;8.45;2.40;;;27.30;68.80;;;;;;4154249;28;20060;-37
2023/01/26 15:21:09;;;;;;;6.45;2.88;;;27.30;68.80;;;;;;4145271;28;20041;-38
2023/01/26 15:23:57;;;;;;;5.45;2.50;;;27.30;68.80;;;;;;4154025;28;20054;-37
2023/01/26 15:26:34;;;;;;;10.32;3.03;;;27.20;68.70;;;;;;4152357;28;20041;-38
2023/01/26 15:28:58;;;;;;;7.53;2.90;;;27.20;68.70;;;;;;4153408;28;20037;-37
2023/01/26 15:31:43;;;;;;;6.95;2.70;;;27.20;68.80;;;;;;4149623;28;20057;-40
2023/01/26 15:34:25;;;;;;;5.57;2.67;;;27.20;68.90;;;;;;4153636;28;20103;-36
2023/01/26 15:36:50;;;;;;;6.57;3.00;;;27.20;68.90;;;;;;4151015;28;20484;-36
2023/01/26 15:39:14;;;;;;;6.10;2.53;;;27.20;68.90;;;;;;4151142;28;20044;-37
2023/01/26 15:41:37;;;;;;;5.95;2.70;;;27.20;68.90;;;;;;4150363;28;20056;-39
2023/01/26 15:43:59;;;;;;;6.75;2.80;;;27.20;68.80;;;;;;4152708;28;20092;-37
2023/01/26 15:46:22;;;;;;;7.30;2.90;;;27.20;68.80;;;;;;4149044;28;20501;-37
2023/01/26 15:48:44;;;;;;;8.02;2.53;;;27.20;68.70;;;;;;4148921;28;20234;-36
2023/01/26 15:51:16;;;;;;;8.32;3.03;;;27.20;68.80;;;;;;4154802;28;20049;-37
2023/01/26 15:53:38;;;;;;;7.88;2.70;;;27.20;68.70;;;;;;4150206;28;20041;-37
2023/01/26 15:56:01;;;;;;;6.45;2.33;;;27.20;68.70;;;;;;4138735;28;20073;-37
2023/01/26 15:58:24;;;;;;;5.90;2.78;;;27.20;68.70;;;;;;4150478;28;20053;-37
2023/01/26 16:00:47;;;;;;;5.18;2.65;;;27.20;68.60;;;;;;4153261;28;20041;-36
2023/01/26 16:03:15;;;;;;;9.45;2.70;;;27.20;68.60;;;;;;4152456;28;20037;-35
2023/01/26 16:05:38;;;;;;;7.43;2.60;;;27.20;68.60;;;;;;4153212;28;20030;-37
2023/01/26 16:08:00;;;;;;;4.90;3.03;;;27.20;68.60;;;;;;4153624;28;20102;-36
2023/01/26 16:10:22;;;;;;;8.07;2.65;;;27.20;68.60;;;;;;4150877;28;22855;-40
2023/01/26 16:12:47;;;;;;;6.13;2.67;;;27.20;68.50;;;;;;4152092;28;20048;-38
2023/01/26 16:15:52;;;;;;;4.68;2.47;;;27.20;68.50;;;;;;4139059;28;20069;-37
2023/01/26 16:18:14;;;;;;;;;;;27.20;68.50;;;;;;4125276;28;20132;-39
2023/01/26 16:20:39;;;;;;;6.18;2.30;;;27.20;68.30;;;;;;4153178;28;19912;-39
2023/01/26 16:23:01;;;;;;;6.38;3.00;;;27.20;68.30;;;;;;4152185;28;20071;-38
2023/01/26 16:25:29;;;;;;;8.10;3.15;;;27.20;68.20;;;;;;4152692;28;20041;-39
2023/01/26 16:27:53;;;;;;;5.80;3.05;;;27.20;68.20;;;;;;4151794;28;20033;-37
2023/01/26 16:30:16;;;;;;;7.93;2.63;;;27.20;68.20;;;;;;4151123;28;20033;-37
2023/01/26 16:32:38;;;;;;;7.70;3.20;;;27.20;68.10;;;;;;4152712;28;20413;-37
2023/01/26 16:35:00;;;;;;;7.20;3.25;;;27.20;68.10;;;;;;4150932;28;22206;-37
2023/01/26 16:37:23;;;;;;;5.68;2.95;;;27.20;68.70;;;;;;4150456;28;20053;-36
2023/01/26 16:39:45;;;;;;;9.85;3.10;;;27.20;68.10;;;;;;4146940;28;20040;-37
2023/01/26 16:42:16;;;;;;;3.92;2.33;;;27.20;68.10;;;;;;4152365;28;20551;-37
2023/01/26 16:44:38;;;;;;;5.47;2.40;;;27.20;68.00;;;;;;4149692;28;20441;-37
2023/01/26 16:47:03;;;;;;;4.85;2.58;;;27.20;67.90;;;;;;4151150;28;20033;-37
2023/01/26 16:49:28;;;;;;;7.03;2.60;;;27.20;67.80;;;;;;4148383;28;20132;-37
2023/01/26 16:51:50;;;;;;;5.50;2.58;;;27.20;67.80;;;;;;4153836;28;20053;-36
2023/01/26 16:54:13;;;;;;;5.28;2.45;;;27.10;67.70;;;;;;4147838;28;20121;-40
2023/01/26 16:56:35;;;;;;;5.78;2.78;;;27.10;67.80;;;;;;4154744;28;20477;-36
2023/01/26 16:58:58;;;;;;;7.60;3.03;;;27.10;67.80;;;;;;4148961;28;20052;-38
2023/01/26 17:01:32;;;;;;;6.10;2.65;;;27.10;67.80;;;;;;4154128;28;20455;-37
2023/01/26 17:03:55;;;;;;;5.10;2.90;;;27.10;67.80;;;;;;4153609;28;20045;-37
2023/01/26 17:06:19;;;;;;;6.82;2.50;;;27.10;67.70;;;;;;4151475;28;20038;-36
2023/01/26 17:08:41;;;;;;;5.45;2.78;;;27.10;67.70;;;;;;4148297;28;20044;-37
2023/01/26 17:11:04;;;;;;;4.90;2.47;;;27.10;68.20;;;;;;4152134;28;20060;-38
2023/01/26 17:13:26;;;;;;;4.88;2.28;;;27.10;67.70;;;;;;4149209;28;20046;-36
2023/01/26 17:15:49;;;;;;;6.40;2.50;;;27.10;67.70;;;;;;4148687;28;20033;-37
2023/01/26 17:18:12;;;;;;;6.60;3.05;;;27.10;67.70;;;;;;4152922;28;20053;-39
2023/01/26 17:20:35;;;;;;;6.57;2.83;;;27.10;67.60;;;;;;4138319;28;20194;-39
2023/01/26 17:22:57;;;;;;;6.07;2.50;;;27.10;67.60;;;;;;4154407;28;20044;-38
2023/01/26 17:25:20;;;;;;;11.68;2.78;;;27.10;67.70;;;;;;4152333;28;20088;-36
2023/01/26 17:27:43;;;;;;;6.20;2.50;;;27.10;67.70;;;;;;4151655;28;20041;-36
2023/01/26 17:30:06;;;;;;;4.50;2.33;;;27.10;67.70;;;;;;4150885;28;20080;-36
2023/01/26 17:32:32;;;;;;;4.97;2.45;;;27.00;67.50;;;;;;4151098;28;20033;-43
2023/01/26 17:34:55;;;;;;;2.92;2.08;;;27.10;67.50;;;;;;4152056;28;20041;-38
2023/01/26 17:37:18;;;;;;;7.03;2.47;;;27.10;67.50;;;;;;4149351;28;20302;-38
2023/01/26 17:39:41;;;;;;;5.80;2.58;;;27.00;67.40;;;;;;4149370;28;20041;-40
2023/01/26 17:42:03;;;;;;;4.60;2.65;;;27.00;67.30;;;;;;4155305;28;20238;-38
2023/01/26 17:44:26;;;;;;;6.75;2.97;;;27.00;67.30;;;;;;4152008;28;20087;-37
2023/01/26 17:46:48;;;;;;;5.22;2.30;;;27.00;67.30;;;;;;4154249;28;20047;-39
2023/01/26 17:49:11;;;;;;;6.63;2.30;;;27.00;67.30;;;;;;4154304;28;20042;-37
2023/01/26 17:51:33;;;;;;;5.47;2.50;;;27.00;67.30;;;;;;4155129;28;20477;-38
2023/01/26 17:53:56;;;;;;;6.88;2.65;;;27.00;67.30;;;;;;4154461;28;20045;-41
2023/01/26 17:56:20;;;;;;;4.90;2.42;;;27.00;67.20;;;;;;4152503;28;20037;-37
2023/01/26 17:58:47;;;;;;;7.53;2.42;;;27.00;67.20;;;;;;4148101;28;20579;-38
2023/01/26 18:01:10;;;;;;;6.25;2.30;;;27.00;67.30;;;;;;4152172;28;20127;-38
2023/01/26 18:03:32;;;;;;;6.15;2.78;;;26.90;67.30;;;;;;4151687;28;20041;-38
2023/01/26 18:05:56;;;;;;;6.70;2.30;;;26.90;67.20;;;;;;4150546;28;20239;-38
2023/01/26 18:08:18;;;;;;;;;;;26.90;67.30;;;;;;4154980;28;20096;-39
2023/01/26 18:10:40;;;;;;;6.57;2.20;;;26.90;67.40;;;;;;4152528;28;19913;-40
2023/01/26 18:13:03;;;;;;;5.35;2.40;;;26.80;67.20;;;;;;4150269;28;20043;-39
2023/01/26 18:15:25;;;;;;;5.28;2.25;;;26.80;67.30;;;;;;4142579;28;20041;-39
2023/01/26 18:17:48;;;;;;;6.05;2.45;;;26.80;67.40;;;;;;4156696;28;20049;-37
2023/01/26 18:20:11;;;;;;;7.10;2.72;;;26.80;67.40;;;;;;4151370;28;20437;-38
2023/01/26 18:22:34;;;;;;;7.30;2.60;;;26.80;67.40;;;;;;4152493;28;20044;-39
2023/01/26 18:24:57;;;;;;;8.40;2.83;;;26.80;67.50;;;;;;4153115;28;20120;-37
2023/01/26 18:27:19;;;;;;;5.55;2.90;;;26.70;67.50;;;;;;4160135;28;20033;-37
2023/01/26 18:29:41;;;;;;;5.38;2.33;;;26.70;67.50;;;;;;4152458;28;20044;-37